Rankin Inlet Airport
CYRT : now visible

Airfield :











YOU CAN JOIN US ON...

 
LOGIN :

Register | Disclaimer

   EN    FR    IT 

 









Legend :    VFR   Marginal VFR   IFR   Intensive IFR   Very Intensive IFR
Visi :
Ceiling :
>= 8 km
>= 3000ft
5 to 8 km
1000 to 3000 ft
1500m to 5 km
500 to 1000 ft
800 to 1500m
200 to 500 ft
< 800m
< 200 ft
Symbols :   Thunderstorms  Fog  Heavy snow  Heavy precipitations  Wind > 20 kt






- Airport Elevation : 94 ft
- IATA code : YRT


CYRT - Rankin Inlet

CURRENT METAR :
  • 172100Z 29010KT 8SM IC DRSN FEW073 BKN270 M30/M34 A2966 RMK AC2CI3 SLP051

EXPIRED METARs :
  • 172000Z 30015KT 6SM IC BLSN SCT078 BKN270 M31/M35 A2964 RMK AC4CI2 SLP046
  • 171900Z 30016KT 6SM IC BLSN BKN270 M31/M36 A2964 RMK CI5 SLP045

TAF TAF CYRT
Valid from the 17 at 18:00 until the 18 at 06:00 UTC


171738Z 1718/1806 30015KT P6SM FEW020
TEMPO 1718/1806 4SM IC BLSN SCT020 SCT050 RMK NXT FCST BY 180000Z



MET'MAP, your aeronautical weather chart ! - Copyright ORBIFLY December 2007 - Disclaimer

ORBIFLY MET'MAP TEAM :

Programming & Development : Alexandra Zaïnal
Concept & original design : Baudouin d'Aumeries
Assistance for programming : Marc-Olivier Méhu
Technical & hardware support : Manuel Goepfert

Contact : metmap@orbifly.com




SOURCES & CREDITS :

   NOAA       Earth
Advisory